Terminal Aerodrome Forecast
Issued by NWS

Home | Current Version | Previous Version | Text Only | Print | Product List | Glossary Off
Versions: 1 2 3 4 5 6 7 8 9 10 11 12 13 14 15 16 17 18

699
FTUS43 KUNR 241414 AAA
TAFGCC
TAF AMD
KGCC 241414Z 2414/2512 33010KT P6SM BKN040
     FM242300 VRB05KT P6SM FEW200=

USA.gov is the U.S. government's official web portal to all federal, state and local government web resources and services.